Time;durP1;ratioP1;P1;durP2;ratioP2;P2;SDS_P1;SDS_P2;PMS_P1;PMS_P2;Temp;Humidity;BMP_temperature;BMP_pressure;BME280_temperature;BME280_humidity;BME280_pressure;Samples;Min_cycle;Max_cycle;Signal;HPM_P1;HPM_P2
2021/07/01 00:01:45;;;;;;;32.87;15.20;;;;;;;16.62;100.00;100006.69;5059493;28;20209;-69
2021/07/01 00:04:11;;;;;;;41.63;16.83;;;;;;;16.61;100.00;100000.44;5076355;28;20193;-68
2021/07/01 00:06:36;;;;;;;62.77;20.63;;;;;;;16.56;100.00;100002.72;5094739;28;20178;-69
2021/07/01 00:09:03;;;;;;;29.13;16.07;;;;;;;16.50;100.00;99996.03;5076330;28;20566;-68
2021/07/01 00:11:29;;;;;;;42.70;17.00;;;;;;;16.48;100.00;99995.34;5076329;28;20174;-68
2021/07/01 00:13:54;;;;;;;46.33;19.63;;;;;;;16.46;100.00;100004.53;5076468;28;20181;-68
2021/07/01 00:16:20;;;;;;;33.10;17.00;;;;;;;16.43;100.00;100002.97;5076092;28;20174;-68
2021/07/01 00:18:45;;;;;;;35.57;17.70;;;;;;;16.43;100.00;100002.13;5094098;28;20265;-68
2021/07/01 00:21:11;;;;;;;35.97;17.40;;;;;;;16.42;100.00;99998.59;5093952;28;20178;-68
2021/07/01 00:23:36;;;;;;;52.50;20.33;;;;;;;16.37;100.00;99994.63;5093850;28;20202;-69
2021/07/01 00:26:01;;;;;;;39.60;19.17;;;;;;;16.34;100.00;99995.72;5075852;28;20178;-69
2021/07/01 00:28:27;;;;;;;50.37;20.83;;;;;;;16.33;100.00;99991.31;5094139;28;20550;-69
2021/07/01 00:30:52;;;;;;;58.20;23.63;;;;;;;16.31;100.00;99993.28;5094587;28;20178;-69
2021/07/01 00:33:17;;;;;;;52.23;20.90;;;;;;;16.32;100.00;99996.84;5094383;28;20213;-69
2021/07/01 00:35:43;;;;;;;47.87;21.30;;;;;;;16.30;100.00;99991.59;5075888;28;20185;-68
2021/07/01 00:38:08;;;;;;;48.33;21.50;;;;;;;16.32;100.00;99994.16;5075945;28;20689;-68
2021/07/01 00:40:33;;;;;;;59.53;23.40;;;;;;;16.30;100.00;99994.28;5058759;28;20205;-68
2021/07/01 00:42:59;;;;;;;45.40;22.03;;;;;;;16.30;100.00;99988.91;5093591;28;20324;-69
2021/07/01 00:45:24;;;;;;;63.10;24.23;;;;;;;16.31;100.00;99987.91;5093783;28;20550;-68
2021/07/01 00:47:50;;;;;;;41.20;20.37;;;;;;;16.30;100.00;99990.75;5075582;28;20572;-68
2021/07/01 00:50:15;;;;;;;100.07;31.77;;;;;;;16.28;100.00;99988.19;5075830;28;20181;-68
2021/07/01 00:52:41;;;;;;;100.50;28.83;;;;;;;16.27;100.00;99986.47;5093835;28;20181;-67
2021/07/01 00:55:07;;;;;;;123.83;31.73;;;;;;;16.27;100.00;99981.09;5075143;28;20174;-68
2021/07/01 00:57:33;;;;;;;59.77;26.13;;;;;;;16.25;100.00;99991.16;5094155;28;20503;-68
2021/07/01 00:59:59;;;;;;;44.53;23.27;;;;;;;16.26;100.00;99984.78;5075759;28;20562;-68
2021/07/01 01:02:24;;;;;;;166.17;38.83;;;;;;;16.25;100.00;99983.09;5075427;28;20178;-67
2021/07/01 01:04:49;;;;;;;68.17;28.23;;;;;;;16.24;100.00;99973.31;5075056;28;20213;-68
2021/07/01 01:07:15;;;;;;;79.23;29.13;;;;;;;16.25;100.00;99975.00;5093324;28;20182;-67
2021/07/01 01:09:40;;;;;;;97.90;30.83;;;;;;;16.25;100.00;99972.31;5075070;28;20201;-67
2021/07/01 01:12:07;;;;;;;81.13;28.67;;;;;;;16.25;100.00;99966.94;5093285;28;20179;-69
2021/07/01 01:14:32;;;;;;;89.30;29.87;;;;;;;16.25;100.00;99964.22;5093331;28;20610;-68
2021/07/01 01:16:57;;;;;;;85.00;30.10;;;;;;;16.23;100.00;99961.69;5075021;28;20246;-68
2021/07/01 01:19:23;;;;;;;117.17;35.17;;;;;;;16.22;100.00;99959.13;5074824;28;20684;-68
2021/07/01 01:21:49;;;;;;;65.03;29.43;;;;;;;16.18;100.00;99957.72;5075202;28;20182;-68
2021/07/01 01:24:14;;;;;;;60.57;27.70;;;;;;;16.17;100.00;99956.84;5074967;28;20315;-67
2021/07/01 01:26:40;;;;;;;72.77;29.47;;;;;;;16.17;100.00;99948.78;5058298;28;20177;-68
2021/07/01 01:29:05;;;;;;;90.90;31.13;;;;;;;16.18;100.00;99955.88;5075404;28;20198;-69
2021/07/01 01:31:31;;;;;;;89.97;32.43;;;;;;;16.17;100.00;99956.00;5058227;28;20520;-68
2021/07/01 01:33:56;;;;;;;77.50;31.53;;;;;;;16.18;100.00;99957.72;5060170;28;20178;-69
2021/07/01 01:36:22;;;;;;;96.17;33.13;;;;;;;16.15;100.00;99956.16;5075289;28;20209;-68
2021/07/01 01:38:47;;;;;;;63.80;28.53;;;;;;;16.17;100.00;99958.69;5075015;28;20252;-68
2021/07/01 01:41:12;;;;;;;56.07;27.10;;;;;;;16.16;100.00;99948.91;5058143;28;20200;-68
2021/07/01 01:43:37;;;;;;;60.63;27.47;;;;;;;16.17;100.00;99956.84;5092828;28;20197;-68
2021/07/01 01:46:03;;;;;;;53.73;27.80;;;;;;;16.19;100.00;99948.63;5092955;28;20178;-68
2021/07/01 01:48:28;;;;;;;57.73;28.23;;;;;;;16.17;100.00;99947.94;5093000;28;20657;-68
2021/07/01 01:50:54;;;;;;;56.53;27.57;;;;;;;16.23;100.00;99947.38;5092934;28;20205;-68
2021/07/01 01:53:19;;;;;;;64.93;26.40;;;;;;;16.16;100.00;99948.91;5092904;28;20637;-68
2021/07/01 01:55:44;;;;;;;56.70;26.60;;;;;;;16.16;100.00;99957.00;5074801;28;20186;-69
2021/07/01 01:58:10;;;;;;;80.90;30.47;;;;;;;16.14;100.00;99950.91;5074707;28;20194;-68
2021/07/01 02:00:36;;;;;;;56.60;27.50;;;;;;;16.15;100.00;99955.28;5074692;28;20174;-68
2021/07/01 02:03:02;;;;;;;67.30;28.50;;;;;;;16.13;100.00;99955.44;5074518;28;20194;-69
2021/07/01 02:05:28;;;;;;;77.47;30.80;;;;;;;16.11;100.00;99949.34;5075356;28;20174;-68
2021/07/01 02:07:53;;;;;;;50.97;26.40;;;;;;;16.12;100.00;99944.81;5061834;28;20247;-69
2021/07/01 02:10:25;;;;;;;77.53;29.07;;;;;;;16.11;100.00;99943.94;5061675;28;20239;-69
2021/07/01 02:12:51;;;;;;;63.67;28.70;;;;;;;16.17;100.00;99950.63;5061685;28;20166;-69
2021/07/01 02:15:20;;;;;;;83.80;29.50;;;;;;;16.15;100.00;99942.69;5096699;28;20235;-69
2021/07/01 02:17:46;;;;;;;57.27;26.80;;;;;;;16.13;100.00;99935.75;5078309;28;20214;-69
2021/07/01 02:20:14;;;;;;;44.60;25.23;;;;;;;16.15;100.00;99940.00;5078694;28;20260;-69
2021/07/01 02:22:39;;;;;;;56.13;25.67;;;;;;;16.14;100.00;99943.69;5061464;28;20186;-69
2021/07/01 02:25:06;;;;;;;88.40;30.23;;;;;;;16.10;100.00;99941.41;5096592;28;20186;-69
2021/07/01 02:27:31;;;;;;;67.97;29.40;;;;;;;16.13;100.00;99941.13;5078015;28;20546;-69
2021/07/01 02:29:57;;;;;;;59.17;26.40;;;;;;;16.11;100.00;99937.72;5061582;28;20227;-69
2021/07/01 02:32:22;;;;;;;49.73;23.93;;;;;;;16.13;100.00;99933.03;5096392;28;20225;-70
2021/07/01 02:34:48;;;;;;;57.57;26.07;;;;;;;16.10;100.00;99930.63;5096234;28;20192;-69
2021/07/01 02:37:13;;;;;;;52.37;25.23;;;;;;;16.15;100.00;99933.75;5078184;28;20203;-69
2021/07/01 02:39:39;;;;;;;70.10;27.53;;;;;;;16.11;100.00;99933.19;5096212;28;20205;-69
2021/07/01 02:42:05;;;;;;;70.33;27.83;;;;;;;16.11;100.00;99929.63;5078493;28;20502;-69
2021/07/01 02:44:31;;;;;;;86.73;28.50;;;;;;;16.08;100.00;99927.22;5062125;28;20608;-69
2021/07/01 02:46:56;;;;;;;60.47;26.27;;;;;;;16.15;100.00;99929.22;5078079;28;20174;-69
2021/07/01 02:49:22;;;;;;;68.60;26.77;;;;;;;16.12;100.00;99928.66;5096005;28;20190;-69
2021/07/01 02:51:47;;;;;;;51.73;25.10;;;;;;;16.12;100.00;99934.03;5061028;28;20201;-69
2021/07/01 02:54:12;;;;;;;78.67;28.47;;;;;;;16.09;100.00;99928.94;5097935;28;20166;-69
2021/07/01 02:56:41;;;;;;;73.90;27.07;;;;;;;16.11;100.00;99927.81;5080972;28;20175;-69
2021/07/01 02:59:10;;;;;;;60.10;26.63;;;;;;;16.11;100.00;99941.25;5081665;28;20194;-70
2021/07/01 03:01:35;;;;;;;56.43;25.23;;;;;;;16.10;100.00;99934.19;5096088;28;20174;-69
2021/07/01 03:04:01;;;;;;;61.10;24.47;;;;;;;16.15;100.00;99941.84;5095930;28;20201;-70
2021/07/01 03:06:26;;;;;;;62.90;25.83;;;;;;;16.15;100.00;99931.06;5060983;28;20178;-69
2021/07/01 03:08:54;;;;;;;82.77;28.87;;;;;;;16.16;100.00;99932.75;5095425;28;20194;-69
2021/07/01 03:11:19;;;;;;;56.67;25.60;;;;;;;16.17;100.00;99927.25;5095276;28;20175;-70
2021/07/01 03:13:44;;;;;;;59.90;26.43;;;;;;;16.14;100.00;99937.44;5095376;28;20262;-69
2021/07/01 03:16:10;;;;;;;72.77;26.00;;;;;;;16.15;100.00;99929.22;5095277;28;20174;-70
2021/07/01 03:18:35;;;;;;;64.27;26.30;;;;;;;16.17;100.00;99938.00;5076949;28;20213;-69
2021/07/01 03:21:00;;;;;;;62.27;25.90;;;;;;;16.14;100.00;99937.44;5077055;28;20702;-69
2021/07/01 03:23:25;;;;;;;71.87;29.07;;;;;;;16.12;100.00;99932.19;5095165;28;20193;-69
2021/07/01 03:25:51;;;;;;;71.97;27.67;;;;;;;16.16;100.00;99936.31;5077032;28;20174;-70
2021/07/01 03:28:16;;;;;;;53.10;25.30;;;;;;;16.24;100.00;99938.31;5095490;28;20190;-70
2021/07/01 03:30:41;;;;;;;57.33;25.80;;;;;;;16.18;100.00;99937.03;5077334;28;20170;-70
2021/07/01 03:33:07;;;;;;;78.63;27.77;;;;;;;16.18;100.00;99939.72;5095964;28;20185;-70
2021/07/01 03:35:32;;;;;;;58.83;26.37;;;;;;;16.18;100.00;99934.31;5076844;28;20178;-69
2021/07/01 03:37:57;;;;;;;53.90;25.07;;;;;;;16.23;100.00;99932.06;5094849;28;20213;-70
2021/07/01 03:40:23;;;;;;;51.77;24.43;;;;;;;16.30;100.00;99934.19;5077017;28;20189;-70
2021/07/01 03:42:48;;;;;;;49.83;23.90;;;;;;;16.26;100.00;99941.72;5094948;28;20178;-69
2021/07/01 03:45:13;;;;;;;48.07;24.73;;;;;;;16.26;100.00;99945.25;5076946;28;20189;-68
2021/07/01 03:47:38;;;;;;;44.07;23.77;;;;;;;16.26;100.00;99947.09;5076898;28;20683;-69
2021/07/01 03:50:04;;;;;;;48.13;23.47;;;;;;;16.25;100.00;99940.00;5077281;28;20186;-69
2021/07/01 03:52:30;;;;;;;56.80;24.90;;;;;;;16.22;100.00;99941.13;5076614;28;20230;-69
2021/07/01 03:54:55;;;;;;;77.43;26.80;;;;;;;16.23;100.00;99937.44;5094631;28;20582;-70
2021/07/01 03:57:20;;;;;;;44.60;22.67;;;;;;;16.34;100.00;99935.63;5095067;28;20197;-69
2021/07/01 03:59:46;;;;;;;50.83;22.60;;;;;;;16.33;100.00;99936.59;5076583;28;20174;-69
2021/07/01 04:02:11;;;;;;;71.27;24.27;;;;;;;16.27;100.00;99941.56;5077210;28;20174;-70
2021/07/01 04:04:36;;;;;;;58.93;23.43;;;;;;;16.34;100.00;99933.78;5094754;28;20207;-70
2021/07/01 04:07:04;;;;;;;53.33;22.30;;;;;;;16.33;100.00;99939.31;5076405;28;20178;-70
2021/07/01 04:09:29;;;;;;;51.60;20.63;;;;;;;16.40;100.00;99932.41;5076141;28;20210;-70
2021/07/01 04:11:54;;;;;;;36.27;19.37;;;;;;;16.43;100.00;99941.03;5076594;28;20329;-69
2021/07/01 04:14:20;;;;;;;35.33;19.13;;;;;;;16.44;100.00;99933.81;5076031;28;20172;-69
2021/07/01 04:16:45;;;;;;;36.80;18.40;;;;;;;16.45;100.00;99930.97;5075896;28;20626;-70
2021/07/01 04:19:12;;;;;;;37.17;19.03;;;;;;;16.41;100.00;99934.94;5110053;22;20221;-76
2021/07/01 04:21:37;;;;;;;35.07;20.10;;;;;;;16.50;100.00;99927.84;5096419;28;20177;-75
2021/07/01 04:24:03;;;;;;;45.20;18.77;;;;;;;16.44;100.00;99940.06;5114161;28;20254;-75
2021/07/01 04:26:28;;;;;;;58.13;22.33;;;;;;;16.42;100.00;99938.50;5114192;28;20185;-75
2021/07/01 04:28:53;;;;;;;44.00;19.97;;;;;;;16.46;100.00;99935.38;5113703;28;20259;-75
2021/07/01 04:31:20;;;;;;;35.90;17.50;;;;;;;16.49;100.00;99935.09;5114148;28;20177;-74
2021/07/01 04:33:45;;;;;;;43.30;17.67;;;;;;;16.50;100.00;99927.84;5078921;28;20192;-75
2021/07/01 04:36:10;;;;;;;44.17;18.90;;;;;;;16.49;100.00;99936.94;5096063;28;20177;-75
2021/07/01 04:38:36;;;;;;;40.27;18.40;;;;;;;16.48;100.00;99937.94;5113733;28;20681;-75
2021/07/01 04:41:01;;;;;;;41.83;18.20;;;;;;;16.53;100.00;99941.91;5113652;28;20182;-74
2021/07/01 04:43:26;;;;;;;61.13;19.87;;;;;;;16.52;100.00;99950.13;5113670;28;20618;-75
2021/07/01 04:45:52;;;;;;;45.70;18.40;;;;;;;16.51;100.00;99943.03;5113949;28;20181;-74
2021/07/01 04:48:17;;;;;;;42.10;17.97;;;;;;;16.58;100.00;99936.94;5113446;28;20197;-74
2021/07/01 04:50:42;;;;;;;36.50;16.97;;;;;;;16.62;100.00;99942.03;5095437;28;20227;-73
2021/07/01 04:53:07;;;;;;;50.77;19.50;;;;;;;16.56;100.00;99941.59;5113536;28;20201;-74
2021/07/01 04:55:33;;;;;;;34.70;17.63;;;;;;;16.61;100.00;99943.03;5113490;28;20177;-73
2021/07/01 04:57:58;;;;;;;31.30;18.13;;;;;;;16.66;100.00;99943.47;5094953;28;20181;-72
2021/07/01 05:00:24;;;;;;;42.70;18.93;;;;;;;16.60;100.00;99942.19;5111943;28;20263;-72
2021/07/01 05:02:49;;;;;;;32.83;16.33;;;;;;;16.67;100.00;99950.56;5077944;28;20177;-73
2021/07/01 05:05:14;;;;;;;37.50;17.80;;;;;;;16.70;100.00;99945.75;5095165;28;20239;-72
2021/07/01 05:07:41;;;;;;;35.27;18.20;;;;;;;16.78;100.00;99947.75;5113103;28;20177;-73
2021/07/01 05:10:07;;;;;;;29.90;16.00;;;;;;;16.82;100.00;99946.47;5113094;28;20250;-73
2021/07/01 05:12:32;;;;;;;28.03;15.60;;;;;;;16.75;100.00;99958.81;5113080;28;20173;-72
2021/07/01 05:14:58;;;;;;;31.17;15.87;;;;;;;16.66;100.00;99954.25;5094998;28;20181;-73
2021/07/01 05:17:23;;;;;;;36.00;17.53;;;;;;;16.73;100.00;99953.56;5094788;28;20181;-73
2021/07/01 05:19:48;;;;;;;29.27;18.07;;;;;;;16.75;100.00;99950.75;5094601;28;20659;-73
2021/07/01 05:22:14;;;;;;;36.83;17.00;;;;;;;16.76;100.00;99942.50;5112843;28;20178;-73
2021/07/01 05:24:39;;;;;;;31.93;15.77;;;;;;;16.83;100.00;99945.47;5112850;28;20194;-70
2021/07/01 05:27:04;;;;;;;29.67;15.93;;;;;;;16.84;100.00;99955.28;5113183;28;20165;-68
2021/07/01 05:29:29;;;;;;;35.03;16.47;;;;;;;16.88;100.00;99954.84;5095115;28;20657;-66
2021/07/01 05:31:55;;;;;;;33.87;15.93;;;;;;;16.92;100.00;99960.78;5113105;28;20548;-76
2021/07/01 05:34:20;;;;;;;29.47;15.47;;;;;;;16.85;100.00;99951.59;5095156;28;20210;-76
2021/07/01 05:36:46;;;;;;;35.03;16.70;;;;;;;16.79;100.00;99955.69;5077984;28;20667;-76
2021/07/01 05:39:11;;;;;;;26.00;15.37;;;;;;;16.80;100.00;99954.69;5113089;28;20205;-75
2021/07/01 05:41:36;;;;;;;26.63;15.17;;;;;;;16.78;100.00;99951.31;5115008;28;20177;-75
2021/07/01 05:44:03;;;;;;;34.50;14.97;;;;;;;16.77;100.00;99964.91;5117159;28;20254;-67
2021/07/01 05:46:29;;;;;;;30.47;16.47;;;;;;;16.76;100.00;99956.00;5117430;28;20189;-67
2021/07/01 05:48:54;;;;;;;26.53;15.33;;;;;;;16.79;100.00;99957.53;5117282;28;20204;-68
2021/07/01 05:51:20;;;;;;;31.03;16.00;;;;;;;16.72;100.00;99964.47;5117212;28;20272;-67
2021/07/01 05:56:16;;;;;;;37.00;17.47;;;;;;;16.63;100.00;99949.97;5099641;28;20161;-74
2021/07/01 05:58:41;;;;;;;31.67;15.93;;;;;;;16.60;100.00;99970.97;5116773;28;20657;-73
2021/07/01 06:01:07;;;;;;;42.50;17.70;;;;;;;16.56;100.00;99968.53;5098396;28;20178;-74
2021/07/01 06:03:32;;;;;;;29.20;16.47;;;;;;;16.65;100.00;99974.06;5116989;28;20205;-73
2021/07/01 06:06:02;;;;;;;28.30;16.50;;;;;;;16.66;100.00;99978.50;5098930;28;20250;-73
2021/07/01 06:08:31;;;;;;;33.23;16.83;;;;;;;16.62;100.00;99974.34;5098608;28;20197;-74
2021/07/01 06:11:01;;;;;;;29.57;15.87;;;;;;;16.64;100.00;99973.22;5117452;28;20260;-74
2021/07/01 06:13:28;;;;;;;24.57;15.73;;;;;;;16.71;100.00;99968.16;5098870;28;20169;-74
2021/07/01 06:15:53;;;;;;;32.07;17.13;;;;;;;16.70;100.00;99971.84;5098560;28;20201;-73
2021/07/01 06:18:22;;;;;;;33.70;16.77;;;;;;;16.72;100.00;99984.19;5098176;28;20236;-74
2021/07/01 06:20:49;;;;;;;31.83;15.77;;;;;;;16.63;100.00;99976.91;5098732;28;20189;-73
2021/07/01 06:23:15;;;;;;;38.93;17.90;;;;;;;16.60;100.00;99977.19;5116435;28;20783;-73
2021/07/01 06:25:41;;;;;;;34.70;16.90;;;;;;;16.59;100.00;99983.56;5098132;28;20185;-73
2021/07/01 06:28:06;;;;;;;44.87;17.07;;;;;;;16.57;100.00;99983.72;5081575;28;20258;-74
2021/07/01 06:30:36;;;;;;;46.20;19.20;;;;;;;16.61;100.00;99980.75;5081464;28;20249;-74
2021/07/01 06:33:01;;;;;;;32.70;16.40;;;;;;;16.57;100.00;99986.41;5082119;28;20264;-73
2021/07/01 06:35:27;;;;;;;37.77;16.53;;;;;;;16.56;100.00;99989.25;5117418;28;20220;-74
2021/07/01 06:37:56;;;;;;;33.17;16.23;;;;;;;16.59;100.00;99986.28;5098444;28;20170;-75
2021/07/01 06:40:22;;;;;;;32.00;16.93;;;;;;;16.66;100.00;99984.75;5081489;28;20173;-74
2021/07/01 06:42:50;;;;;;;48.50;18.73;;;;;;;16.73;100.00;99987.75;5099451;28;20169;-73
2021/07/01 06:45:18;;;;;;;28.53;14.80;;;;;;;16.74;100.00;99989.47;5098745;28;20220;-73
2021/07/01 06:47:48;;;;;;;24.93;13.43;;;;;;;16.73;100.00;99995.84;5117006;28;20174;-72
2021/07/01 06:50:15;;;;;;;22.77;12.60;;;;;;;16.70;100.00;99994.25;5098761;28;20170;-74
2021/07/01 06:52:43;;;;;;;40.43;14.80;;;;;;;16.64;100.00;99989.38;5102184;28;20174;-75
2021/07/01 06:55:08;;;;;;;23.23;12.67;;;;;;;16.71;100.00;99993.25;5116803;28;20172;-74
2021/07/01 06:57:35;;;;;;;22.93;11.37;;;;;;;16.74;100.00;100003.78;5115976;28;20181;-73
2021/07/01 07:00:01;;;;;;;26.60;11.37;;;;;;;16.68;100.00;100000.78;5100210;28;20276;-74
2021/07/01 07:02:30;;;;;;;22.30;11.40;;;;;;;16.60;100.00;99995.19;5081737;28;20237;-73
2021/07/01 07:04:56;;;;;;;25.07;10.37;;;;;;;16.63;100.00;99992.22;5098796;28;20193;-73
2021/07/01 07:07:21;;;;;;;19.13;10.53;;;;;;;16.50;100.00;99993.34;5098443;28;20258;-72
2021/07/01 07:09:47;;;;;;;20.87;10.60;;;;;;;16.44;100.00;99991.22;5081371;28;20231;-74
2021/07/01 07:12:12;;;;;;;27.30;10.40;;;;;;;16.33;100.00;99995.84;5098354;28;20176;-74
2021/07/01 07:14:37;;;;;;;26.07;11.43;;;;;;;16.32;100.00;99994.16;5117055;28;20173;-72
2021/07/01 07:17:03;;;;;;;21.77;10.10;;;;;;;16.22;100.00;99999.50;5116011;28;20170;-74
2021/07/01 07:19:29;;;;;;;29.37;10.97;;;;;;;16.12;100.00;99999.50;5115929;28;20671;-73
2021/07/01 07:21:59;;;;;;;18.37;9.07;;;;;;;16.14;100.00;100002.03;5081100;28;20624;-73
2021/07/01 07:24:27;;;;;;;16.63;8.73;;;;;;;16.04;100.00;100006.56;5097879;28;20235;-72
2021/07/01 07:26:53;;;;;;;19.90;9.00;;;;;;;15.92;100.00;100014.69;5098038;28;20169;-74
2021/07/01 07:29:20;;;;;;;24.13;9.83;;;;;;;15.92;100.00;100008.47;5115884;28;20192;-74
2021/07/01 07:31:45;;;;;;;24.73;10.73;;;;;;;15.87;100.00;100014.25;5097409;28;20173;-75
2021/07/01 07:34:11;;;;;;;21.23;9.73;;;;;;;15.90;100.00;100015.81;5120238;28;20170;-74
2021/07/01 07:36:36;;;;;;;19.67;9.47;;;;;;;15.78;100.00;100015.06;5121501;28;20173;-74
2021/07/01 07:39:04;;;;;;;25.23;10.10;;;;;;;15.71;100.00;100010.34;5115984;28;20642;-73
2021/07/01 07:41:30;;;;;;;16.50;9.37;;;;;;;15.74;100.00;100016.31;5116004;28;20202;-74
2021/07/01 07:43:55;;;;;;;19.93;10.23;;;;;;;15.64;100.00;100020.81;5097386;28;20311;-73
2021/07/01 07:46:23;;;;;;;20.80;10.03;;;;;;;15.71;100.00;100021.97;5080954;28;20201;-74
2021/07/01 07:48:49;;;;;;;19.10;9.27;;;;;;;15.72;100.00;100017.44;5097509;28;20185;-74
2021/07/01 07:51:16;;;;;;;19.80;10.43;;;;;;;15.72;100.00;100025.50;5097637;28;20235;-74
2021/07/01 07:53:42;;;;;;;17.63;9.57;;;;;;;15.73;100.00;100019.16;5096882;28;20206;-74
2021/07/01 07:56:09;;;;;;;25.97;10.17;;;;;;;15.70;100.00;100025.66;5096817;28;20173;-74
2021/07/01 07:58:41;;;;;;;19.53;10.07;;;;;;;15.70;100.00;100027.50;5080205;28;20189;-74
2021/07/01 08:01:08;;;;;;;22.97;9.77;;;;;;;15.72;100.00;100030.91;5096827;28;20522;-73
2021/07/01 08:03:35;;;;;;;23.00;9.23;;;;;;;15.72;100.00;100030.91;5096038;28;20284;-74
2021/07/01 08:06:01;;;;;;;20.10;10.40;;;;;;;15.68;100.00;100032.16;5096662;28;20215;-74
2021/07/01 08:08:30;;;;;;;27.33;11.50;;;;;;;15.68;100.00;100040.22;5097389;28;20209;-73
2021/07/01 08:10:57;;;;;;;32.13;10.93;;;;;;;15.68;100.00;100043.75;5096878;28;20169;-74
2021/07/01 08:13:23;;;;;;;28.63;11.63;;;;;;;15.67;100.00;100044.75;5096753;28;20633;-73
2021/07/01 08:15:48;;;;;;;20.33;9.33;;;;;;;15.76;100.00;100048.47;5115132;28;20229;-74
2021/07/01 08:18:38;;;;;;;26.17;11.10;;;;;;;15.77;100.00;100048.34;5096644;28;20200;-75
2021/07/01 08:21:04;;;;;;;16.30;7.90;;;;;;;15.75;100.00;100053.00;5096847;28;20189;-74
2021/07/01 08:23:29;;;;;;;20.50;9.33;;;;;;;15.70;100.00;100046.31;5079459;28;20189;-74
2021/07/01 08:25:55;;;;;;;16.10;8.33;;;;;;;15.77;100.00;100053.72;5115053;28;20700;-75
2021/07/01 08:28:21;;;;;;;21.63;10.97;;;;;;;15.73;100.00;100060.34;5096868;28;20296;-75
2021/07/01 08:30:47;;;;;;;16.70;8.60;;;;;;;15.75;100.00;100061.06;5114765;28;20170;-74
2021/07/01 08:33:17;;;;;;;23.43;9.17;;;;;;;15.74;100.00;100070.13;5096058;28;20572;-75
2021/07/01 08:35:43;;;;;;;16.13;8.57;;;;;;;15.75;100.00;100063.75;5096078;28;20219;-74
2021/07/01 08:38:08;;;;;;;20.40;10.07;;;;;;;15.67;100.00;100071.66;5096270;28;20189;-74
2021/07/01 08:40:37;;;;;;;19.37;9.43;;;;;;;15.87;100.00;100067.22;5096380;28;20185;-74
2021/07/01 08:43:05;;;;;;;21.03;8.90;;;;;;;15.87;100.00;100061.84;5096321;28;20165;-74
2021/07/01 08:45:51;;;;;;;21.97;9.47;;;;;;;15.89;100.00;100068.78;5095964;28;20173;-73
2021/07/01 08:48:24;;;;;;;32.30;10.53;;;;;;;15.85;100.00;100071.88;5096064;28;20197;-73
2021/07/01 08:50:56;;;;;;;18.20;8.30;;;;;;;15.84;100.00;100071.03;5114314;28;20172;-74
2021/07/01 08:53:34;;;;;;;19.80;8.83;;;;;;;15.85;100.00;100070.03;5096289;28;20215;-73
2021/07/01 08:56:00;;;;;;;17.77;8.57;;;;;;;15.83;100.00;100071.16;5114168;28;20153;-73
2021/07/01 08:58:26;;;;;;;23.90;9.27;;;;;;;15.88;100.00;100080.53;5121529;28;20201;-73
2021/07/01 09:00:53;;;;;;;20.03;9.10;;;;;;;15.93;100.00;100077.44;5079707;28;20177;-74
2021/07/01 09:03:25;;;;;;;17.67;8.67;;;;;;;15.94;100.00;100080.00;5101789;28;20197;-74
2021/07/01 09:05:52;;;;;;;17.03;8.50;;;;;;;15.91;100.00;100085.66;5097841;28;20530;-74
2021/07/01 09:08:18;;;;;;;19.17;8.40;;;;;;;15.97;100.00;100091.47;5118139;28;20624;-74
2021/07/01 09:10:51;;;;;;;17.83;8.47;;;;;;;15.95;100.00;100092.47;5096858;28;20256;-74
2021/07/01 09:13:20;;;;;;;18.37;7.87;;;;;;;16.01;100.00;100092.94;5115291;28;20161;-75
2021/07/01 09:15:47;;;;;;;23.77;8.60;;;;;;;15.94;100.00;100098.84;5114165;28;20170;-74
2021/07/01 09:18:13;;;;;;;16.50;8.43;;;;;;;15.88;100.00;100107.44;5113347;28;20208;-73
2021/07/01 09:20:39;;;;;;;16.37;8.93;;;;;;;15.85;100.00;100099.66;5114451;28;20166;-73
2021/07/01 09:23:09;;;;;;;16.90;8.50;;;;;;;15.81;100.00;100108.13;5113805;28;20174;-73
2021/07/01 09:25:35;;;;;;;12.97;8.47;;;;;;;15.83;100.00;100104.31;5114934;28;20185;-74
2021/07/01 09:28:01;;;;;;;16.87;8.73;;;;;;;15.78;100.00;100103.84;5096599;28;20178;-74
2021/07/01 09:30:29;;;;;;;15.83;8.37;;;;;;;15.76;100.00;100110.34;5114832;28;20480;-74
2021/07/01 09:32:56;;;;;;;13.50;7.87;;;;;;;15.83;100.00;100116.91;5114787;28;20568;-74
2021/07/01 09:35:23;;;;;;;21.50;8.70;;;;;;;15.77;100.00;100114.75;5114818;28;20646;-75
2021/07/01 09:37:49;;;;;;;19.37;9.20;;;;;;;15.88;100.00;100107.44;5114633;28;20248;-73
2021/07/01 09:40:17;;;;;;;15.47;7.97;;;;;;;15.97;100.00;100116.56;5096154;28;20168;-73
2021/07/01 09:42:43;;;;;;;23.33;9.30;;;;;;;16.02;100.00;100108.13;5096550;28;20169;-74
2021/07/01 09:45:13;;;;;;;14.50;8.20;;;;;;;16.09;100.00;100112.81;5095709;28;20189;-74
2021/07/01 09:47:55;;;;;;;14.07;7.87;;;;;;;16.12;100.00;100119.78;5114984;28;20197;-73
2021/07/01 09:50:23;;;;;;;13.97;8.57;;;;;;;16.04;100.00;100116.91;5114623;28;20158;-74
2021/07/01 09:52:51;;;;;;;13.10;7.53;;;;;;;15.98;100.00;100125.47;5096788;28;20192;-74
2021/07/01 09:55:17;;;;;;;12.80;7.63;;;;;;;15.98;100.00;100126.34;5114588;28;20715;-74
2021/07/01 09:57:46;;;;;;;17.07;11.03;;;;;;;15.99;100.00;100127.22;5096510;28;20205;-74
2021/07/01 10:00:12;;;;;;;15.70;8.33;;;;;;;16.09;100.00;100128.13;5079422;28;20166;-74
2021/07/01 10:02:38;;;;;;;16.40;7.83;;;;;;;16.06;100.00;100128.38;5114878;28;20181;-74
2021/07/01 10:05:05;;;;;;;14.97;7.77;;;;;;;16.00;100.00;100132.47;5096315;28;20215;-74
2021/07/01 10:07:31;;;;;;;15.27;8.00;;;;;;;16.12;100.00;100126.00;5113869;28;20270;-74
2021/07/01 10:09:58;;;;;;;15.07;8.33;;;;;;;16.10;100.00;100132.50;5096867;28;20217;-72
2021/07/01 10:12:28;;;;;;;14.50;7.47;;;;;;;16.04;100.00;100133.06;5095744;28;20253;-73
2021/07/01 10:14:56;;;;;;;15.67;7.50;;;;;;;16.03;100.00;100137.59;5114387;28;20641;-73
2021/07/01 10:17:22;;;;;;;13.43;7.23;;;;;;;16.08;100.00;100135.34;5114444;28;20244;-74
2021/07/01 10:19:49;;;;;;;12.70;7.10;;;;;;;16.01;100.00;100136.00;5124326;22;20229;-69
2021/07/01 10:22:18;;;;;;;11.30;6.47;;;;;;;16.16;100.00;100132.84;5113048;28;20185;-68
2021/07/01 10:24:48;;;;;;;15.80;7.53;;;;;;;16.12;100.00;100141.31;5113145;28;20615;-71
2021/07/01 10:27:29;;;;;;;16.27;6.90;;;;;;;16.16;100.00;100140.06;5096071;28;20177;-71
2021/07/01 10:29:57;;;;;;;17.40;7.20;;;;;;;16.17;100.00;100147.16;5082087;28;20550;-70
2021/07/01 10:32:54;;;;;;;9.23;5.70;;;;;;;16.44;100.00;100139.34;5116881;28;20260;-70
2021/07/01 10:35:32;;;;;;;10.13;5.50;;;;;;;16.92;100.00;100149.47;5060715;28;20726;-70
2021/07/01 10:38:07;;;;;;;9.03;6.17;;;;;;;17.36;100.00;100152.66;5098718;28;20181;-70
2021/07/01 10:40:36;;;;;;;9.30;5.50;;;;;;;17.57;100.00;100149.84;5098571;28;20666;-70
2021/07/01 10:43:01;;;;;;;9.97;4.97;;;;;;;17.76;100.00;100150.69;5098193;28;20223;-70
2021/07/01 10:45:27;;;;;;;6.77;5.07;;;;;;;17.73;100.00;100145.59;5116511;28;20177;-71
2021/07/01 10:47:54;;;;;;;8.13;5.30;;;;;;;17.53;99.15;100156.50;5081348;28;20265;-69
2021/07/01 10:50:19;;;;;;;8.43;5.00;;;;;;;17.57;97.58;100153.38;5099602;28;20198;-63
2021/07/01 10:52:45;;;;;;;8.30;5.27;;;;;;;17.64;95.43;100151.81;5098819;28;20509;-63
2021/07/01 10:55:11;;;;;;;9.33;4.87;;;;;;;18.10;92.21;100153.75;5116553;28;20223;-63
2021/07/01 10:57:46;;;;;;;9.87;4.57;;;;;;;18.51;88.42;100145.38;5098177;28;20193;-63
2021/07/01 11:00:11;;;;;;;7.97;4.70;;;;;;;18.90;85.78;100152.34;5081125;28;20537;-70
2021/07/01 11:02:44;;;;;;;7.23;4.70;;;;;;;19.57;81.93;100164.59;5116763;28;20188;-70
2021/07/01 11:05:10;;;;;;;6.33;4.27;;;;;;;19.83;82.48;100161.09;5098201;28;20672;-70
2021/07/01 11:07:43;;;;;;;8.43;5.53;;;;;;;20.01;77.05;100170.03;5098189;28;20181;-70
2021/07/01 11:10:09;;;;;;;8.60;4.60;;;;;;;19.68;79.71;100164.34;5081125;28;20330;-70